Time;durP1;ratioP1;P1;durP2;ratioP2;P2;SDS_P1;SDS_P2;PMS_P1;PMS_P2;Temp;Humidity;BMP_temperature;BMP_pressure;BME280_temperature;BME280_humidity;BME280_pressure;Samples;Min_cycle;Max_cycle;Signal;HPM_P1;HPM_P2
2022/11/14 00:00:35;;;;;;;25.65;15.80;;;10.40;99.90;;;;;;5080620;28;20226;-79
2022/11/14 00:03:42;;;;;;;25.30;15.73;;;10.30;99.90;;;;;;5075395;28;20253;-78
2022/11/14 00:06:49;;;;;;;25.15;15.77;;;10.30;99.90;;;;;;5080588;28;20211;-77
2022/11/14 00:09:57;;;;;;;27.65;15.90;;;10.30;99.90;;;;;;5083354;28;20243;-78
2022/11/14 00:13:05;;;;;;;25.27;15.15;;;10.40;99.90;;;;;;5082719;28;20227;-77
2022/11/14 00:16:12;;;;;;;25.13;15.20;;;10.30;99.90;;;;;;5081861;28;20214;-76
2022/11/14 00:19:19;;;;;;;25.60;15.90;;;10.20;99.90;;;;;;5084746;28;20219;-75
2022/11/14 00:22:26;;;;;;;24.42;15.68;;;10.40;99.90;;;;;;5084316;28;20239;-76
2022/11/14 00:25:34;;;;;;;24.00;15.15;;;10.30;99.90;;;;;;5084058;28;20231;-77
2022/11/14 00:28:42;;;;;;;23.67;15.10;;;10.30;99.90;;;;;;5081121;28;20242;-76
2022/11/14 00:31:49;;;;;;;24.58;15.63;;;10.40;99.90;;;;;;5083037;28;20231;-77
2022/11/14 00:34:56;;;;;;;24.30;15.93;;;10.40;99.90;;;;;;5079290;28;20223;-77
2022/11/14 00:38:04;;;;;;;22.77;14.68;;;10.40;99.90;;;;;;5082334;28;20313;-77
2022/11/14 00:41:11;;;;;;;24.20;15.43;;;10.20;99.90;;;;;;5082503;28;20212;-76
2022/11/14 00:44:20;;;;;;;23.48;14.95;;;10.30;99.90;;;;;;5079392;28;20219;-78
2022/11/14 00:47:27;;;;;;;25.27;14.40;;;10.30;99.90;;;;;;5079815;28;20310;-76
2022/11/14 00:50:34;;;;;;;21.65;14.68;;;10.20;99.90;;;;;;5080590;28;20238;-77
2022/11/14 00:53:41;;;;;;;21.83;13.70;;;10.20;99.90;;;;;;5079828;28;20698;-77
2022/11/14 00:56:48;;;;;;;22.13;14.18;;;10.20;99.90;;;;;;5084183;28;20246;-77
2022/11/14 00:59:57;;;;;;;22.55;13.43;;;10.20;99.90;;;;;;5077053;28;20301;-78
2022/11/14 01:03:04;;;;;;;22.65;14.32;;;10.20;99.90;;;;;;5080895;28;20995;-79
2022/11/14 01:06:13;;;;;;;20.48;13.40;;;10.30;99.90;;;;;;5086026;28;20219;-79
2022/11/14 01:09:20;;;;;;;20.98;13.88;;;10.30;99.90;;;;;;5067643;28;20283;-78
2022/11/14 01:12:27;;;;;;;22.95;13.90;;;10.40;99.90;;;;;;5082881;28;20223;-77
2022/11/14 01:15:40;;;;;;;22.20;14.18;;;10.50;99.90;;;;;;5069993;28;20266;-79
2022/11/14 01:18:47;;;;;;;23.48;13.50;;;10.50;99.90;;;;;;5079603;28;20246;-79
2022/11/14 01:21:54;;;;;;;20.92;13.45;;;10.40;99.90;;;;;;5082185;28;20555;-77
2022/11/14 01:25:01;;;;;;;22.35;13.60;;;10.30;99.90;;;;;;5078023;28;20235;-76
2022/11/14 01:28:10;;;;;;;20.25;13.05;;;10.30;99.90;;;;;;5076978;28;21029;-76
2022/11/14 01:31:20;;;;;;;20.95;12.70;;;10.20;99.90;;;;;;5080795;28;20592;-76
2022/11/14 01:34:28;;;;;;;19.13;12.35;;;10.20;99.90;;;;;;5075800;28;20219;-77
2022/11/14 01:37:35;;;;;;;20.58;12.60;;;10.20;99.90;;;;;;5080037;28;20234;-76
2022/11/14 01:40:42;;;;;;;19.02;12.07;;;10.30;99.90;;;;;;5077700;28;20789;-77
2022/11/14 01:43:50;;;;;;;22.67;12.57;;;10.30;99.90;;;;;;5081316;28;21011;-76
2022/11/14 01:46:58;;;;;;;20.50;12.57;;;10.20;99.90;;;;;;5071849;28;20228;-76
2022/11/14 01:50:06;;;;;;;18.13;11.70;;;10.10;99.90;;;;;;5076288;28;20224;-76
2022/11/14 01:53:14;;;;;;;16.42;11.55;;;10.20;99.90;;;;;;5076332;28;20223;-77
2022/11/14 01:56:25;;;;;;;17.35;11.65;;;10.20;99.90;;;;;;5081762;28;20264;-77
2022/11/14 01:59:35;;;;;;;19.00;11.75;;;10.30;99.90;;;;;;5080409;28;20224;-77
2022/11/14 02:02:44;;;;;;;18.50;12.00;;;10.40;99.90;;;;;;5077726;28;20607;-77
2022/11/14 02:05:53;;;;;;;21.75;12.63;;;10.40;99.90;;;;;;5078959;28;20212;-75
2022/11/14 02:09:04;;;;;;;19.50;12.25;;;10.40;99.90;;;;;;5079667;28;21329;-77
2022/11/14 02:12:14;;;;;;;18.63;12.38;;;10.20;99.90;;;;;;5084476;28;20272;-76
2022/11/14 02:15:21;;;;;;;22.17;13.75;;;10.30;99.90;;;;;;5072074;28;20987;-77
2022/11/14 02:18:30;;;;;;;18.27;12.73;;;10.30;99.90;;;;;;5092773;28;20227;-77
2022/11/14 02:21:39;;;;;;;21.83;13.30;;;10.20;99.90;;;;;;5074535;28;20223;-77
2022/11/14 02:24:46;;;;;;;19.88;13.05;;;10.20;99.90;;;;;;5078133;28;20282;-77
2022/11/14 02:27:55;;;;;;;20.95;12.98;;;10.20;99.90;;;;;;5078217;28;20215;-78
2022/11/14 02:31:02;;;;;;;22.17;13.23;;;10.20;99.90;;;;;;5080313;28;20925;-77
2022/11/14 02:34:09;;;;;;;20.95;13.68;;;10.10;99.90;;;;;;5071673;28;20660;-78
2022/11/14 02:37:18;;;;;;;21.58;14.52;;;10.10;99.90;;;;;;5082650;28;20847;-79
2022/11/14 02:40:25;;;;;;;22.20;14.85;;;10.10;99.90;;;;;;5078997;28;20216;-77
2022/11/14 02:43:32;;;;;;;26.25;14.95;;;10.30;99.90;;;;;;5084051;28;20690;-77
2022/11/14 02:46:39;;;;;;;23.10;14.68;;;10.20;99.90;;;;;;5082857;28;20232;-78
2022/11/14 02:49:46;;;;;;;23.92;15.45;;;10.10;99.90;;;;;;5081816;28;20355;-76
2022/11/14 02:52:55;;;;;;;22.75;15.98;;;10.20;99.90;;;;;;5079705;28;20239;-77
2022/11/14 02:56:03;;;;;;;25.50;16.15;;;10.10;99.90;;;;;;5075150;28;20224;-76
2022/11/14 02:59:10;;;;;;;24.67;16.17;;;10.00;99.90;;;;;;5085772;28;20579;-76
2022/11/14 03:02:17;;;;;;;26.15;16.65;;;10.00;99.90;;;;;;5078451;28;20241;-76
2022/11/14 03:05:24;;;;;;;25.67;17.10;;;10.00;99.90;;;;;;5076572;28;20223;-76
2022/11/14 03:08:33;;;;;;;24.15;16.60;;;9.90;99.90;;;;;;5079429;28;20247;-76
2022/11/14 03:11:40;;;;;;;23.88;15.88;;;9.80;99.90;;;;;;5076749;28;20322;-76
2022/11/14 03:14:47;;;;;;;25.25;17.05;;;9.90;99.90;;;;;;5079883;28;20223;-75
2022/11/14 03:17:54;;;;;;;26.70;16.48;;;10.10;99.90;;;;;;5085409;28;20243;-77
2022/11/14 03:21:06;;;;;;;29.02;17.75;;;10.00;99.90;;;;;;5075194;28;20254;-77
2022/11/14 03:24:15;;;;;;;26.48;17.50;;;10.00;99.90;;;;;;5085939;28;20227;-77
2022/11/14 03:27:22;;;;;;;24.17;16.35;;;9.80;99.90;;;;;;5074348;28;20223;-77
2022/11/14 03:30:30;;;;;;;24.15;15.68;;;10.00;99.90;;;;;;5075151;28;20227;-77
2022/11/14 03:33:37;;;;;;;23.67;15.38;;;9.80;99.90;;;;;;5082139;28;20230;-76
2022/11/14 03:36:44;;;;;;;22.30;14.30;;;9.80;99.90;;;;;;5080998;28;20551;-77
2022/11/14 03:39:53;;;;;;;22.23;14.77;;;10.00;99.90;;;;;;5077868;28;20216;-76
2022/11/14 03:43:00;;;;;;;24.80;14.23;;;10.00;99.90;;;;;;5076635;28;20220;-77
2022/11/14 03:46:07;;;;;;;20.17;13.52;;;9.90;99.90;;;;;;5077556;28;20782;-77
2022/11/14 03:49:14;;;;;;;21.77;13.23;;;9.80;99.90;;;;;;5088333;28;20227;-77
2022/11/14 03:52:21;;;;;;;21.65;13.80;;;9.80;99.90;;;;;;5084661;28;20287;-76
2022/11/14 03:55:30;;;;;;;19.67;13.38;;;9.90;99.90;;;;;;5074656;28;20234;-76
2022/11/14 03:58:37;;;;;;;23.45;13.30;;;9.90;99.90;;;;;;5053920;28;20227;-77
2022/11/14 04:01:45;;;;;;;23.02;13.52;;;9.90;99.90;;;;;;5062252;28;20654;-77
2022/11/14 04:04:52;;;;;;;20.17;13.45;;;9.90;99.90;;;;;;5062332;28;20224;-77
2022/11/14 04:07:59;;;;;;;23.33;13.77;;;10.00;99.90;;;;;;5071994;28;20716;-77
2022/11/14 04:11:08;;;;;;;21.08;13.98;;;10.10;99.90;;;;;;5074315;28;20249;-78
2022/11/14 04:14:15;;;;;;;23.63;13.45;;;10.00;99.90;;;;;;5073051;28;20231;-79
2022/11/14 04:17:22;;;;;;;21.00;14.00;;;10.00;99.90;;;;;;5078293;28;20222;-78
2022/11/14 04:20:30;;;;;;;20.40;13.20;;;10.10;99.90;;;;;;5070571;28;20928;-78
2022/11/14 04:23:37;;;;;;;21.20;14.13;;;9.90;99.90;;;;;;5056932;28;20224;-77
2022/11/14 04:26:45;;;;;;;19.92;13.05;;;10.10;99.90;;;;;;5059266;28;20224;-78
2022/11/14 04:29:53;;;;;;;21.92;12.77;;;10.10;99.90;;;;;;5064001;28;20215;-78
2022/11/14 04:33:00;;;;;;;21.33;12.23;;;10.00;99.90;;;;;;5074218;28;20216;-75
2022/11/14 04:36:08;;;;;;;19.45;11.98;;;10.00;99.90;;;;;;5078247;28;20235;-77
2022/11/14 04:39:15;;;;;;;18.10;11.98;;;9.90;99.90;;;;;;5058548;28;20220;-77
2022/11/14 04:42:24;;;;;;;20.65;12.32;;;9.80;99.90;;;;;;5073228;28;20220;-78
2022/11/14 04:45:31;;;;;;;21.42;11.90;;;9.80;99.90;;;;;;5056178;28;20220;-78
2022/11/14 04:48:38;;;;;;;17.27;10.77;;;9.90;99.90;;;;;;5072262;28;20273;-77
2022/11/14 04:51:45;;;;;;;16.00;10.23;;;9.80;99.90;;;;;;5057521;28;20264;-77
2022/11/14 04:54:53;;;;;;;16.88;10.30;;;9.90;99.90;;;;;;5071851;28;20739;-77
2022/11/14 04:58:01;;;;;;;17.23;10.40;;;9.90;99.90;;;;;;5070778;28;20228;-77
2022/11/14 05:01:09;;;;;;;12.50;9.50;;;9.80;99.90;;;;;;5089966;28;20222;-76
2022/11/14 05:04:16;;;;;;;12.80;9.48;;;9.80;99.90;;;;;;5093813;28;20237;-76
2022/11/14 05:07:23;;;;;;;15.38;9.13;;;9.80;99.90;;;;;;5059023;28;20244;-77
2022/11/14 05:10:30;;;;;;;13.73;10.52;;;9.90;99.90;;;;;;5075016;28;20347;-76
2022/11/14 05:13:39;;;;;;;15.55;10.88;;;9.90;99.90;;;;;;5079931;28;20224;-76
2022/11/14 05:16:46;;;;;;;14.73;11.07;;;9.90;99.90;;;;;;5072486;28;20223;-77
2022/11/14 05:19:53;;;;;;;16.23;10.95;;;10.00;99.90;;;;;;5084236;28;20960;-77
2022/11/14 05:23:00;;;;;;;15.27;10.55;;;9.90;99.90;;;;;;5079947;28;20226;-78
2022/11/14 05:26:11;;;;;;;15.30;10.80;;;9.90;99.90;;;;;;5079074;28;20219;-76
2022/11/14 05:29:20;;;;;;;14.82;10.48;;;9.90;99.90;;;;;;5086461;28;20219;-77
2022/11/14 05:32:27;;;;;;;14.93;10.15;;;10.00;99.90;;;;;;5052844;28;20216;-75
2022/11/14 05:35:34;;;;;;;14.73;9.75;;;9.80;99.90;;;;;;5084057;28;20226;-78
2022/11/14 05:38:41;;;;;;;14.95;9.75;;;9.80;99.90;;;;;;5087567;28;20682;-77
2022/11/14 05:41:48;;;;;;;15.82;9.73;;;9.70;99.90;;;;;;5085545;28;20223;-76
2022/11/14 05:44:57;;;;;;;13.88;9.02;;;9.70;99.90;;;;;;5083661;28;20231;-73
2022/11/14 05:48:05;;;;;;;12.13;9.18;;;9.70;99.90;;;;;;5088954;28;20226;-77
2022/11/14 05:51:13;;;;;;;12.63;8.93;;;9.60;99.90;;;;;;5075191;28;20220;-77
2022/11/14 05:54:20;;;;;;;12.40;8.40;;;9.70;99.90;;;;;;5078878;28;20594;-78
2022/11/14 05:57:27;;;;;;;11.73;7.80;;;9.70;99.90;;;;;;5082557;28;20337;-79
2022/11/14 06:00:36;;;;;;;12.65;9.00;;;9.70;99.90;;;;;;5085284;28;20215;-78
2022/11/14 06:03:54;;;;;;;13.00;8.10;;;9.70;99.90;;;;;;5083403;28;20302;-78
2022/11/14 06:07:01;;;;;;;11.93;8.68;;;9.70;99.90;;;;;;5081135;28;20370;-79
2022/11/14 06:10:09;;;;;;;14.05;9.00;;;9.70;99.90;;;;;;5079656;28;20298;-78
2022/11/14 06:13:16;;;;;;;13.45;8.88;;;9.70;99.90;;;;;;5056165;28;20220;-79
2022/11/14 06:16:24;;;;;;;14.93;9.35;;;9.80;99.90;;;;;;5056516;28;20234;-77
2022/11/14 06:19:31;;;;;;;13.43;9.13;;;9.80;99.90;;;;;;5083539;28;20888;-76
2022/11/14 06:22:38;;;;;;;14.95;9.65;;;9.80;99.90;;;;;;5084389;28;20268;-78
2022/11/14 06:25:45;;;;;;;13.77;9.85;;;9.80;99.90;;;;;;5078936;28;20246;-78
2022/11/14 06:28:53;;;;;;;13.98;9.60;;;9.70;99.90;;;;;;5078531;28;20219;-77
2022/11/14 06:32:02;;;;;;;15.38;10.05;;;9.70;99.90;;;;;;5085306;28;20219;-79
2022/11/14 06:35:09;;;;;;;14.75;10.30;;;9.80;99.90;;;;;;5079399;28;20220;-77
2022/11/14 06:38:16;;;;;;;13.63;8.93;;;9.80;99.90;;;;;;5078124;28;20290;-76
2022/11/14 06:41:23;;;;;;;15.65;8.48;;;9.80;99.90;;;;;;5074278;28;20234;-81
2022/11/14 06:44:31;;;;;;;12.77;8.40;;;9.80;99.90;;;;;;5079380;28;20547;-76
2022/11/14 06:47:39;;;;;;;16.02;9.75;;;9.90;99.90;;;;;;5083748;28;20243;-77
2022/11/14 06:50:52;;;;;;;13.27;9.05;;;9.80;99.90;;;;;;5083517;28;20590;-77
2022/11/14 06:53:59;;;;;;;15.85;9.60;;;9.80;99.90;;;;;;5083183;28;20230;-76
2022/11/14 06:57:06;;;;;;;13.23;9.30;;;9.90;99.90;;;;;;5082874;28;20231;-76
2022/11/14 07:00:15;;;;;;;13.82;9.68;;;9.90;99.90;;;;;;5070617;28;21019;-76
2022/11/14 07:03:24;;;;;;;15.57;9.75;;;9.80;99.90;;;;;;5083820;28;20638;-76
2022/11/14 07:06:31;;;;;;;11.82;8.68;;;9.90;99.90;;;;;;5086627;28;20292;-76
2022/11/14 07:09:39;;;;;;;16.75;9.32;;;9.80;99.90;;;;;;5060496;28;20216;-75
2022/11/14 07:12:46;;;;;;;15.77;9.93;;;9.80;99.90;;;;;;5077477;28;20227;-77
2022/11/14 07:15:54;;;;;;;13.73;9.63;;;9.70;99.90;;;;;;5078293;28;20219;-77
2022/11/14 07:19:04;;;;;;;16.50;10.20;;;9.70;99.90;;;;;;5081154;28;20854;-77
2022/11/14 07:22:12;;;;;;;15.00;10.32;;;9.70;99.90;;;;;;5080928;28;20302;-77
2022/11/14 07:25:21;;;;;;;16.15;11.18;;;9.60;99.90;;;;;;5085354;28;20223;-78
2022/11/14 07:28:29;;;;;;;14.73;10.18;;;9.70;99.90;;;;;;5078558;28;20236;-79
2022/11/14 07:31:37;;;;;;;14.63;9.18;;;9.80;99.90;;;;;;5076211;28;21440;-74
2022/11/14 07:34:45;;;;;;;15.07;9.45;;;9.80;99.90;;;;;;5078537;28;20238;-75
2022/11/14 07:37:53;;;;;;;11.90;8.20;;;9.60;99.90;;;;;;5087468;28;20227;-75
2022/11/14 07:41:02;;;;;;;16.52;9.25;;;9.60;99.90;;;;;;5091318;28;20243;-76
2022/11/14 07:44:09;;;;;;;10.77;6.78;;;9.70;99.90;;;;;;5086795;28;20306;-75
2022/11/14 07:47:17;;;;;;;10.88;7.20;;;9.60;99.90;;;;;;5079225;28;20223;-76
2022/11/14 07:50:25;;;;;;;9.43;6.70;;;9.70;99.90;;;;;;5080017;28;20243;-77
2022/11/14 07:53:34;;;;;;;9.25;6.40;;;9.70;99.90;;;;;;5083687;28;20288;-76
2022/11/14 07:56:41;;;;;;;8.90;6.70;;;9.80;99.90;;;;;;5080366;28;20230;-76
2022/11/14 07:59:48;;;;;;;9.85;6.55;;;9.80;99.90;;;;;;5078323;28;20216;-75
2022/11/14 08:02:56;;;;;;;10.45;7.18;;;9.80;99.90;;;;;;5080104;28;20219;-75
2022/11/14 08:06:06;;;;;;;12.45;7.38;;;9.80;99.90;;;;;;5081533;28;20223;-76
2022/11/14 08:09:13;;;;;;;10.50;7.20;;;9.70;99.90;;;;;;5080048;28;20245;-76
2022/11/14 08:12:20;;;;;;;8.68;6.82;;;9.70;99.90;;;;;;5089963;28;20235;-76
2022/11/14 08:15:27;;;;;;;10.52;7.80;;;9.70;99.90;;;;;;5091015;28;20219;-77
2022/11/14 08:18:35;;;;;;;10.85;7.32;;;9.60;99.90;;;;;;5088272;28;20722;-74
2022/11/14 08:21:44;;;;;;;9.85;7.28;;;9.70;99.90;;;;;;5082227;28;20219;-76
2022/11/14 08:24:51;;;;;;;10.98;7.10;;;9.70;99.90;;;;;;5085086;28;20219;-76
2022/11/14 08:27:59;;;;;;;8.65;6.70;;;9.70;99.90;;;;;;5075180;28;20258;-77
2022/11/14 18:11:12;;;;;;;25.08;15.52;;;8.70;99.90;;;;;;5079218;27;20600;-76
2022/11/14 18:14:20;;;;;;;21.17;15.63;;;8.60;99.90;;;;;;5072705;28;20219;-78
2022/11/14 18:17:27;;;;;;;25.27;16.42;;;8.60;99.90;;;;;;5075771;28;20215;-80
2022/11/14 18:20:38;;;;;;;24.38;17.17;;;8.60;99.90;;;;;;5070527;28;20215;-78
2022/11/14 18:23:50;;;;;;;26.63;16.75;;;8.60;99.90;;;;;;5073348;28;20216;-76
2022/11/14 18:26:59;;;;;;;22.20;16.33;;;8.60;99.90;;;;;;5073215;28;20216;-79
2022/11/14 18:30:11;;;;;;;24.20;16.98;;;8.60;99.90;;;;;;5074654;28;20235;-81
2022/11/14 18:33:39;;;;;;;22.67;16.08;;;8.50;99.90;;;;;;5091444;28;20225;-77
2022/11/14 18:36:47;;;;;;;24.38;16.38;;;8.60;99.90;;;;;;5094433;28;20589;-77
2022/11/14 18:39:58;;;;;;;22.52;15.90;;;8.60;99.90;;;;;;5093436;28;20252;-79
2022/11/14 18:43:06;;;;;;;24.35;16.08;;;8.80;99.90;;;;;;5095623;28;20218;-78
2022/11/14 18:46:16;;;;;;;27.15;17.33;;;8.60;99.90;;;;;;5097712;28;20316;-78
2022/11/14 18:49:24;;;;;;;22.73;15.70;;;8.70;99.90;;;;;;5098314;28;20269;-77
2022/11/14 18:52:31;;;;;;;23.15;17.02;;;8.70;99.90;;;;;;5099058;28;20232;-79
2022/11/14 18:55:39;;;;;;;22.02;16.17;;;8.70;99.90;;;;;;5096536;28;20227;-77
2022/11/14 18:58:51;;;;;;;22.98;16.67;;;8.60;99.90;;;;;;5097608;28;20226;-78
2022/11/14 19:01:59;;;;;;;25.88;16.77;;;8.60;99.90;;;;;;5097838;28;20756;-78
2022/11/14 19:05:06;;;;;;;23.83;16.58;;;8.50;99.90;;;;;;5088362;28;20729;-77
2022/11/14 19:08:14;;;;;;;22.10;16.42;;;8.60;99.90;;;;;;5095755;28;20219;-77
2022/11/14 19:14:48;;;;;;;25.55;16.80;;;8.80;99.90;;;;;;5092555;28;20218;-76
2022/11/14 19:17:55;;;;;;;24.08;16.92;;;8.60;99.90;;;;;;5095982;28;20218;-76
2022/11/14 19:21:04;;;;;;;25.58;17.38;;;8.60;99.90;;;;;;5088114;28;20314;-76
2022/11/14 19:24:12;;;;;;;24.95;16.95;;;8.70;99.90;;;;;;5080005;28;20223;-77
2022/11/14 19:27:20;;;;;;;25.38;17.55;;;8.60;99.90;;;;;;5079895;28;20238;-76
2022/11/14 19:30:29;;;;;;;27.10;18.02;;;8.60;99.90;;;;;;5080124;28;20235;-77
2022/11/14 19:33:39;;;;;;;27.38;17.83;;;8.60;99.90;;;;;;5079112;28;20220;-76
2022/11/14 19:36:47;;;;;;;23.88;16.75;;;8.70;99.90;;;;;;5083606;28;20211;-77
2022/11/14 19:40:10;;;;;;;24.60;17.88;;;8.60;99.90;;;;;;5083548;28;20633;-77
2022/11/14 19:43:17;;;;;;;28.40;18.63;;;8.60;99.90;;;;;;5081792;28;20231;-78
2022/11/14 19:46:27;;;;;;;25.27;17.65;;;8.60;99.90;;;;;;5081881;28;20814;-77
2022/11/14 19:49:35;;;;;;;26.73;18.60;;;8.60;99.90;;;;;;5078136;28;20226;-77
2022/11/14 19:52:42;;;;;;;25.88;18.75;;;8.50;99.90;;;;;;5079828;28;20215;-76
2022/11/14 19:55:49;;;;;;;25.30;17.90;;;8.50;99.90;;;;;;5082772;28;20223;-77
2022/11/14 19:58:56;;;;;;;29.23;18.92;;;8.60;99.90;;;;;;5079585;28;20223;-78
2022/11/14 20:02:04;;;;;;;30.02;19.92;;;8.60;99.90;;;;;;5079976;28;20594;-77
2022/11/14 20:05:12;;;;;;;32.88;20.05;;;8.50;99.90;;;;;;5078873;28;20795;-76
2022/11/14 20:08:19;;;;;;;27.42;19.77;;;8.50;99.90;;;;;;5085004;28;20635;-76
2022/11/14 20:11:27;;;;;;;26.05;19.70;;;8.40;99.90;;;;;;5081021;28;20708;-76
2022/11/14 20:14:35;;;;;;;25.67;19.65;;;8.50;99.90;;;;;;5083145;28;20219;-77
2022/11/14 20:17:43;;;;;;;27.98;20.33;;;8.50;99.90;;;;;;5078080;28;20222;-77
2022/11/14 20:20:50;;;;;;;28.67;20.45;;;8.50;99.90;;;;;;5080061;28;20208;-75
2022/11/14 20:23:58;;;;;;;27.75;20.30;;;8.50;99.90;;;;;;5079050;28;20644;-76
2022/11/14 20:27:05;;;;;;;30.63;21.48;;;8.40;99.90;;;;;;5081185;28;20255;-77
2022/11/14 20:30:13;;;;;;;29.58;21.02;;;8.40;99.90;;;;;;5079083;28;20986;-77
2022/11/14 20:33:22;;;;;;;30.17;21.27;;;8.40;99.90;;;;;;5075909;28;20219;-78
2022/11/14 20:36:28;;;;;;;33.08;21.95;;;8.40;99.90;;;;;;5077510;28;20310;-78
2022/11/14 20:39:56;;;;;;;29.08;21.35;;;8.50;99.90;;;;;;5082162;28;20250;-78
2022/11/14 20:43:03;;;;;;;29.60;21.52;;;8.40;99.90;;;;;;5078759;28;20235;-79
2022/11/14 20:46:12;;;;;;;30.27;21.77;;;8.30;99.90;;;;;;5082973;28;20219;-78
2022/11/14 20:49:21;;;;;;;35.17;21.95;;;8.40;99.90;;;;;;5077535;28;20223;-78
2022/11/14 20:52:28;;;;;;;31.13;22.45;;;8.40;99.90;;;;;;5080948;28;20537;-79
2022/11/14 20:55:35;;;;;;;29.00;20.92;;;8.30;99.90;;;;;;5080260;28;20682;-78
2022/11/14 20:58:44;;;;;;;27.45;21.85;;;8.30;99.90;;;;;;5075738;28;20219;-78
2022/11/14 21:01:51;;;;;;;31.45;21.77;;;8.30;99.90;;;;;;5078783;28;20234;-78
2022/11/14 21:04:59;;;;;;;28.60;21.00;;;8.30;99.90;;;;;;5078763;28;20257;-78
2022/11/14 21:08:06;;;;;;;30.95;21.00;;;8.30;99.90;;;;;;5079488;28;20988;-78
2022/11/14 21:11:16;;;;;;;26.92;20.20;;;8.40;99.90;;;;;;5077216;28;20234;-78
2022/11/14 21:14:24;;;;;;;30.13;21.13;;;8.30;99.90;;;;;;5074097;28;20724;-78
2022/11/14 21:17:31;;;;;;;29.13;20.60;;;8.50;99.90;;;;;;5078863;28;20215;-78
2022/11/14 21:20:40;;;;;;;29.73;20.95;;;8.30;99.90;;;;;;5082066;28;20590;-77
2022/11/14 21:23:47;;;;;;;28.85;21.35;;;8.40;99.90;;;;;;5080466;28;20216;-77
2022/11/14 21:26:54;;;;;;;31.52;21.80;;;8.30;99.90;;;;;;5082148;28;20535;-78
2022/11/14 21:30:02;;;;;;;31.50;22.15;;;8.40;99.90;;;;;;5075607;28;20228;-77
2022/11/14 21:33:09;;;;;;;29.85;21.45;;;8.40;99.90;;;;;;5079319;28;20227;-78
2022/11/14 21:36:19;;;;;;;32.15;21.00;;;8.50;99.90;;;;;;5077931;28;20211;-74
2022/11/14 21:39:49;;;;;;;29.75;20.92;;;8.30;99.90;;;;;;5074639;28;20310;-77
2022/11/14 21:42:57;;;;;;;31.77;22.48;;;8.40;99.90;;;;;;5076367;28;20232;-76
2022/11/14 21:46:06;;;;;;;27.60;20.80;;;8.40;99.90;;;;;;5081360;28;20239;-76
2022/11/14 21:49:14;;;;;;;33.88;22.70;;;8.40;99.90;;;;;;5074708;28;20226;-76
2022/11/14 21:52:22;;;;;;;33.67;23.60;;;8.40;99.90;;;;;;5081845;28;20239;-77
2022/11/14 21:55:33;;;;;;;32.67;22.83;;;8.40;99.90;;;;;;5082157;28;20215;-76
2022/11/14 21:58:41;;;;;;;35.33;23.98;;;8.40;99.90;;;;;;5077747;28;20215;-77
2022/11/14 22:05:15;;;;;;;33.70;21.75;;;8.40;99.90;;;;;;5075559;28;20230;-76
2022/11/14 22:08:23;;;;;;;28.15;19.95;;;8.40;99.90;;;;;;5079700;28;20250;-77
2022/11/14 22:11:30;;;;;;;25.85;19.13;;;8.20;99.90;;;;;;5075460;28;20678;-77
2022/11/14 22:14:37;;;;;;;26.55;19.92;;;8.20;99.90;;;;;;5081022;28;20219;-77
2022/11/14 22:17:44;;;;;;;26.90;19.02;;;8.30;99.90;;;;;;5077036;28;20219;-80
2022/11/14 22:20:55;;;;;;;29.73;20.00;;;8.10;99.90;;;;;;5076867;28;20249;-76
2022/11/14 22:24:04;;;;;;;24.27;18.63;;;8.20;99.90;;;;;;5077329;28;20663;-77
2022/11/14 22:27:11;;;;;;;26.42;18.95;;;8.20;99.90;;;;;;5077533;28;20572;-78
2022/11/14 22:30:19;;;;;;;23.48;16.95;;;8.30;99.90;;;;;;5080083;28;20235;-76
2022/11/14 22:33:29;;;;;;;23.67;16.98;;;8.20;99.90;;;;;;5074031;28;20599;-75
2022/11/14 22:36:37;;;;;;;22.85;16.40;;;8.10;99.90;;;;;;5077378;28;20281;-76
2022/11/14 22:39:49;;;;;;;21.90;16.17;;;8.00;99.90;;;;;;5078386;28;20232;-76
2022/11/14 22:42:56;;;;;;;23.27;16.33;;;8.00;99.90;;;;;;5079939;28;20219;-76
2022/11/14 22:46:04;;;;;;;22.73;16.27;;;8.10;99.90;;;;;;5079261;28;20326;-76
2022/11/14 22:49:11;;;;;;;23.15;16.33;;;8.00;99.90;;;;;;5077589;28;20647;-73
2022/11/14 22:52:24;;;;;;;23.08;16.02;;;8.00;99.90;;;;;;5078271;28;20261;-76
2022/11/14 22:55:33;;;;;;;24.58;17.00;;;8.10;99.90;;;;;;5077979;28;20230;-75
2022/11/14 22:58:42;;;;;;;22.65;15.20;;;8.00;99.90;;;;;;5079739;28;20646;-75
2022/11/14 23:01:49;;;;;;;23.60;15.93;;;7.90;99.90;;;;;;5079387;28;20227;-74
2022/11/14 23:05:21;;;;;;;25.33;16.60;;;7.90;99.90;;;;;;5080429;28;20228;-77
2022/11/14 23:08:29;;;;;;;23.65;16.25;;;8.00;99.90;;;;;;5076451;28;20277;-77
2022/11/14 23:11:38;;;;;;;24.02;16.85;;;8.10;99.90;;;;;;5081405;28;20310;-76
2022/11/14 23:14:45;;;;;;;22.88;16.60;;;8.10;99.90;;;;;;5082191;28;21221;-76
2022/11/14 23:17:52;;;;;;;23.17;16.52;;;7.90;99.90;;;;;;5082254;28;20216;-77
2022/11/14 23:21:04;;;;;;;26.70;17.60;;;7.90;99.90;;;;;;5081587;28;20571;-75
2022/11/14 23:24:13;;;;;;;26.45;17.13;;;7.90;99.90;;;;;;5079910;28;20254;-75
2022/11/14 23:27:22;;;;;;;26.52;17.98;;;7.80;99.90;;;;;;5079442;28;20227;-76
2022/11/14 23:30:29;;;;;;;25.20;18.63;;;7.80;99.90;;;;;;5081432;28;20248;-74
2022/11/14 23:33:37;;;;;;;27.80;18.67;;;7.90;99.90;;;;;;5082448;28;20222;-75
2022/11/14 23:36:44;;;;;;;28.50;18.17;;;7.90;99.90;;;;;;5081943;28;20220;-76
2022/11/14 23:39:51;;;;;;;27.33;18.42;;;8.10;99.90;;;;;;5082199;28;20242;-77
2022/11/14 23:42:59;;;;;;;27.08;18.00;;;8.20;99.90;;;;;;5081167;28;20306;-75
2022/11/14 23:46:07;;;;;;;30.33;19.15;;;8.20;99.90;;;;;;5078694;28;20227;-75
2022/11/14 23:49:14;;;;;;;29.77;19.30;;;8.20;99.90;;;;;;5080912;28;20226;-76
2022/11/14 23:52:21;;;;;;;27.35;18.77;;;8.00;99.90;;;;;;5082711;28;20598;-77
2022/11/14 23:55:28;;;;;;;31.90;20.80;;;8.00;99.90;;;;;;5081411;28;20219;-76
2022/11/14 23:58:37;;;;;;;27.98;20.23;;;8.10;99.90;;;;;;5079613;28;20231;-77
